createdAt,value
2019-05-03T00:00:11.326Z,45.83
2019-05-03T00:01:12.876Z,45.22
2019-05-03T00:02:12.304Z,45.02
2019-05-03T00:03:12.081Z,45.40
2019-05-03T00:04:12.021Z,45.60
2019-05-03T00:05:12.494Z,45.53
2019-05-03T00:06:12.061Z,45.02
2019-05-03T00:07:11.811Z,45.50
2019-05-03T00:08:12.665Z,45.80
2019-05-03T00:09:11.914Z,45.40
2019-05-03T00:10:12.863Z,45.80
2019-05-03T00:11:12.522Z,44.90
2019-05-03T00:12:12.681Z,45.10
2019-05-03T00:13:12.513Z,45.20
2019-05-03T00:14:12.452Z,45.20
2019-05-03T00:15:12.052Z,45.32
2019-05-03T00:16:12.239Z,45.40
2019-05-03T00:17:11.744Z,45.20
2019-05-03T00:18:11.745Z,45.42
2019-05-03T00:19:12.697Z,45.20
2019-05-03T00:20:11.645Z,45.20
2019-05-03T00:21:11.963Z,45.40
2019-05-03T00:22:12.412Z,45.00
2019-05-03T00:23:12.107Z,45.40
2019-05-03T00:24:11.892Z,45.50
2019-05-03T00:25:12.871Z,45.22
2019-05-03T00:26:11.993Z,45.42
2019-05-03T00:27:12.479Z,45.50
2019-05-03T00:28:13.189Z,45.30
2019-05-03T00:29:12.751Z,45.30
2019-05-03T00:30:11.976Z,45.42
2019-05-03T00:31:12.463Z,45.40
2019-05-03T00:32:12.516Z,45.53
2019-05-03T00:33:11.745Z,45.32
2019-05-03T00:34:12.491Z,45.30
2019-05-03T00:35:12.029Z,45.42
2019-05-03T00:36:11.681Z,45.32
2019-05-03T00:37:12.591Z,45.22
2019-05-03T00:38:12.301Z,45.22
2019-05-03T00:39:12.210Z,45.32
2019-05-03T00:40:12.255Z,45.10
2019-05-03T00:41:12.206Z,45.32
2019-05-03T00:42:11.957Z,45.50
2019-05-03T00:43:11.555Z,45.20
2019-05-03T00:44:11.544Z,45.42
2019-05-03T00:45:12.547Z,45.30
2019-05-03T00:46:12.604Z,45.20
2019-05-03T00:47:12.589Z,45.40
2019-05-03T00:48:12.407Z,45.42
2019-05-03T00:49:12.016Z,45.42
2019-05-03T00:50:12.036Z,45.22
2019-05-03T00:51:11.746Z,45.42
2019-05-03T00:52:11.692Z,45.42
2019-05-03T00:53:11.701Z,45.30
2019-05-03T00:54:12.635Z,45.62
2019-05-03T00:55:17.087Z,45.50
2019-05-03T00:56:12.270Z,45.53
2019-05-03T00:57:12.103Z,45.30
2019-05-03T00:58:11.771Z,45.40
2019-05-03T00:59:12.626Z,45.32
2019-05-03T01:00:12.355Z,45.20
2019-05-03T01:01:11.832Z,45.40
2019-05-03T01:02:11.831Z,45.32
2019-05-03T01:03:12.428Z,45.22
2019-05-03T01:04:11.847Z,45.40
2019-05-03T01:05:11.974Z,45.22
2019-05-03T01:06:11.573Z,45.42
2019-05-03T01:07:11.727Z,45.40
2019-05-03T01:08:12.506Z,45.40
2019-05-03T01:09:11.828Z,45.22
2019-05-03T01:10:11.848Z,45.30
2019-05-03T01:11:12.571Z,45.53
2019-05-03T01:12:12.473Z,45.32
2019-05-03T01:13:12.372Z,45.53
2019-05-03T01:14:11.965Z,45.72
2019-05-03T01:15:12.332Z,45.42
2019-05-03T01:16:11.775Z,45.62
2019-05-03T01:17:11.791Z,45.32
2019-05-03T01:18:12.317Z,45.32
2019-05-03T01:19:12.064Z,45.32
2019-05-03T01:20:11.977Z,45.42
2019-05-03T01:21:11.701Z,45.40
2019-05-03T01:22:11.905Z,45.32
2019-05-03T01:23:12.353Z,45.22
2019-05-03T01:24:12.243Z,45.22
2019-05-03T01:25:12.066Z,45.32
2019-05-03T01:26:11.869Z,45.32
2019-05-03T01:27:12.343Z,45.32
2019-05-03T01:28:12.185Z,45.42
2019-05-03T01:29:12.165Z,45.32
2019-05-03T01:30:11.926Z,45.42
2019-05-03T01:31:11.994Z,45.53
2019-05-03T01:32:11.582Z,45.12
2019-05-03T01:33:12.146Z,45.32
2019-05-03T01:34:12.389Z,45.40
2019-05-03T01:35:12.168Z,45.60
2019-05-03T01:36:12.032Z,45.53
2019-05-03T01:37:11.904Z,45.40
2019-05-03T01:38:11.738Z,45.62
2019-05-03T01:39:10.338Z,45.62
2019-05-03T01:40:12.411Z,45.62
2019-05-03T01:41:12.184Z,45.53
2019-05-03T01:42:11.966Z,45.60
2019-05-03T01:43:11.724Z,45.22
2019-05-03T01:44:12.391Z,45.62
2019-05-03T01:45:11.951Z,45.62
2019-05-03T01:46:12.016Z,45.62
2019-05-03T01:47:11.584Z,45.32
2019-05-03T01:48:10.240Z,45.62
2019-05-03T01:49:12.156Z,45.53
2019-05-03T01:50:12.086Z,45.42
2019-05-03T01:51:11.792Z,45.72
2019-05-03T01:52:10.195Z,45.62
2019-05-03T01:53:10.179Z,45.53
2019-05-03T01:54:12.185Z,45.62
2019-05-03T01:55:13.933Z,45.62
2019-05-03T01:56:11.803Z,45.70
2019-05-03T01:57:11.629Z,45.62
2019-05-03T01:58:10.123Z,45.62
2019-05-03T01:59:10.112Z,45.62
2019-05-03T02:00:11.779Z,45.62
2019-05-03T02:01:10.149Z,46.03
2019-05-03T02:02:10.083Z,45.42
2019-05-03T02:03:10.066Z,45.53
2019-05-03T02:04:12.103Z,45.42
2019-05-03T02:05:11.884Z,45.62
2019-05-03T02:06:11.811Z,45.62
2019-05-03T02:07:11.741Z,45.53
2019-05-03T02:08:10.018Z,45.62
2019-05-03T02:09:12.099Z,45.22
2019-05-03T02:10:11.775Z,45.62
2019-05-03T02:11:11.645Z,45.53
2019-05-03T02:12:09.982Z,45.53
2019-05-03T02:13:10.022Z,45.62
2019-05-03T02:14:09.950Z,45.62
2019-05-03T02:15:11.687Z,45.53
2019-05-03T02:16:11.560Z,45.62
2019-05-03T02:17:09.923Z,45.62
2019-05-03T02:18:14.319Z,45.32
2019-05-03T02:19:12.631Z,45.53
2019-05-03T02:20:09.882Z,45.62
2019-05-03T02:21:09.873Z,45.62
2019-05-03T02:22:11.883Z,45.62
2019-05-03T02:23:11.748Z,45.72
2019-05-03T02:24:11.656Z,45.83
2019-05-03T02:25:09.862Z,45.32
2019-05-03T02:26:11.651Z,45.62
2019-05-03T02:27:09.809Z,45.42
2019-05-03T02:28:09.801Z,45.53
2019-05-03T02:29:09.786Z,45.42
2019-05-03T02:30:09.759Z,45.32
2019-05-03T02:31:09.804Z,45.32
2019-05-03T02:32:09.754Z,45.42
2019-05-03T02:33:09.743Z,45.02
2019-05-03T02:34:12.331Z,45.12
2019-05-03T02:35:09.725Z,45.42
2019-05-03T02:36:09.729Z,45.12
2019-05-03T02:37:09.730Z,45.32
2019-05-03T02:38:09.678Z,45.32
2019-05-03T02:39:09.676Z,45.32
2019-05-03T02:40:09.647Z,45.22
2019-05-03T02:41:09.669Z,45.32
2019-05-03T02:42:11.689Z,45.42
2019-05-03T02:43:09.635Z,45.42
2019-05-03T02:44:09.622Z,45.53
2019-05-03T02:45:09.608Z,45.42
2019-05-03T02:46:09.589Z,45.32
2019-05-03T02:47:09.581Z,45.22
2019-05-03T02:48:09.611Z,45.42
2019-05-03T02:49:09.569Z,45.53
2019-05-03T02:50:09.558Z,45.32
2019-05-03T02:51:09.541Z,45.22
2019-05-03T02:52:09.553Z,45.22
2019-05-03T02:53:09.518Z,45.22
2019-05-03T02:54:09.571Z,45.32
2019-05-03T02:55:09.505Z,45.22
2019-05-03T02:56:21.045Z,45.42
2019-05-03T02:57:10.490Z,45.42
2019-05-03T02:58:09.459Z,45.32
2019-05-03T02:59:09.469Z,45.22
2019-05-03T03:00:09.480Z,45.32
2019-05-03T03:01:09.436Z,45.42
2019-05-03T03:02:09.320Z,45.53
2019-05-03T03:03:09.413Z,45.53
2019-05-03T03:04:09.311Z,45.02
2019-05-03T03:05:09.286Z,45.32
2019-05-03T03:06:09.328Z,45.02
2019-05-03T03:07:09.398Z,45.53
2019-05-03T03:08:09.370Z,45.53
2019-05-03T03:09:09.341Z,45.42
2019-05-03T03:10:09.345Z,45.42
2019-05-03T03:11:09.317Z,45.42
2019-05-03T03:12:09.307Z,45.42
2019-05-03T03:13:09.332Z,44.92
2019-05-03T03:14:09.291Z,45.62
2019-05-03T03:15:09.284Z,45.32
2019-05-03T03:16:09.266Z,45.32
2019-05-03T03:17:09.260Z,45.32
2019-05-03T03:18:09.251Z,45.32
2019-05-03T03:19:09.267Z,45.22
2019-05-03T03:20:09.229Z,45.14
2019-05-03T03:21:09.219Z,45.32
2019-05-03T03:22:09.197Z,45.62
2019-05-03T03:23:09.195Z,45.32
2019-05-03T03:24:09.179Z,45.22
2019-05-03T03:25:09.200Z,45.32
2019-05-03T03:26:09.085Z,45.12
2019-05-03T03:27:09.185Z,45.42
2019-05-03T03:28:09.140Z,45.32
2019-05-03T03:29:09.125Z,45.02
2019-05-03T03:30:09.031Z,45.32
2019-05-03T03:31:09.120Z,45.22
2019-05-03T03:32:10.041Z,45.53
2019-05-03T03:33:09.389Z,45.12
2019-05-03T03:34:09.099Z,45.02
2019-05-03T03:35:12.446Z,45.53
2019-05-03T03:36:37.972Z,45.32
2019-05-03T03:37:10.787Z,45.42
2019-05-03T03:38:09.041Z,45.32
2019-05-03T03:39:09.010Z,45.42
2019-05-03T03:40:09.008Z,45.22
2019-05-03T03:41:08.991Z,45.53
2019-05-03T03:42:08.980Z,44.92
2019-05-03T03:43:09.011Z,45.22
2019-05-03T03:44:08.965Z,45.54
2019-05-03T03:45:08.948Z,45.02
2019-05-03T03:46:08.938Z,45.22
2019-05-03T03:47:08.924Z,45.65
2019-05-03T03:48:08.917Z,45.02
2019-05-03T03:49:08.934Z,45.62
2019-05-03T03:50:08.893Z,45.65
2019-05-03T03:51:08.875Z,45.22
2019-05-03T03:52:08.873Z,45.22
2019-05-03T03:53:08.849Z,45.32
2019-05-03T03:54:08.842Z,45.62
2019-05-03T03:55:11.324Z,45.25
2019-05-03T03:56:08.826Z,45.25
2019-05-03T03:57:08.817Z,45.83
2019-05-03T03:58:08.841Z,45.84
2019-05-03T03:59:08.800Z,45.53
2019-05-03T04:00:08.789Z,45.53
2019-05-03T04:01:08.771Z,45.54
2019-05-03T04:02:08.767Z,45.54
2019-05-03T04:03:08.745Z,45.12
2019-05-03T04:04:08.785Z,45.32
2019-05-03T04:05:08.728Z,45.04
2019-05-03T04:06:08.706Z,45.02
2019-05-03T04:07:08.710Z,45.75
2019-05-03T04:08:08.696Z,45.32
2019-05-03T04:09:08.681Z,45.53
2019-05-03T04:10:08.727Z,45.34
2019-05-03T04:11:09.662Z,45.42
2019-05-03T04:12:08.659Z,45.53
2019-05-03T04:13:08.636Z,45.25
2019-05-03T04:14:08.626Z,45.34
2019-05-03T04:15:08.660Z,45.42
2019-05-03T04:16:08.607Z,45.25
2019-05-03T04:17:08.606Z,45.25
2019-05-03T04:18:08.586Z,45.34
2019-05-03T04:19:08.580Z,45.22
2019-05-03T04:20:08.588Z,45.45
2019-05-03T04:21:08.578Z,45.53
2019-05-03T04:22:08.541Z,44.95
2019-05-03T04:23:08.530Z,45.25
2019-05-03T04:24:08.527Z,45.45
2019-05-03T04:25:08.516Z,45.42
2019-05-03T04:26:09.511Z,45.34
2019-05-03T04:27:18.678Z,45.12
2019-05-03T04:28:09.471Z,45.34
2019-05-03T04:29:08.464Z,45.42
2019-05-03T04:30:08.465Z,45.42
2019-05-03T04:31:08.448Z,45.54
2019-05-03T04:32:08.459Z,45.34
2019-05-03T04:33:08.460Z,45.34
2019-05-03T04:34:08.403Z,45.45
2019-05-03T04:35:08.402Z,45.54
2019-05-03T04:36:08.385Z,45.45
2019-05-03T04:37:08.372Z,45.65
2019-05-03T04:38:08.363Z,45.54
2019-05-03T04:39:08.396Z,45.65
2019-05-03T04:40:08.341Z,45.34
2019-05-03T04:41:08.343Z,45.53
2019-05-03T04:42:08.320Z,45.34
2019-05-03T04:43:08.320Z,45.53
2019-05-03T04:44:08.295Z,45.53
2019-05-03T04:45:08.315Z,45.54
2019-05-03T04:46:08.274Z,45.65
2019-05-03T04:47:08.265Z,45.65
2019-05-03T04:48:08.257Z,45.65
2019-05-03T04:49:08.242Z,45.65
2019-05-03T04:50:08.238Z,45.65
2019-05-03T04:51:08.281Z,45.75
2019-05-03T04:52:08.201Z,45.65
2019-05-03T04:53:08.196Z,45.65
2019-05-03T04:54:08.203Z,45.65
2019-05-03T04:55:08.189Z,45.65
2019-05-03T04:56:08.166Z,45.65
2019-05-03T04:57:08.195Z,45.54
2019-05-03T04:58:08.148Z,45.62
2019-05-03T04:59:08.130Z,45.42
2019-05-03T05:00:11.282Z,45.54
2019-05-03T05:01:08.115Z,45.65
2019-05-03T05:02:08.107Z,45.65
2019-05-03T05:03:08.131Z,45.45
2019-05-03T05:04:08.073Z,45.32
2019-05-03T05:05:08.067Z,45.25
2019-05-03T05:06:07.962Z,45.32
2019-05-03T05:07:08.046Z,45.45
2019-05-03T05:08:08.053Z,45.45
2019-05-03T05:09:08.057Z,45.62
2019-05-03T05:10:07.905Z,45.54
2019-05-03T05:11:10.427Z,45.54
2019-05-03T05:12:07.998Z,45.42
2019-05-03T05:13:07.987Z,45.53
2019-05-03T05:14:07.973Z,45.84
2019-05-03T05:15:07.990Z,46.04
2019-05-03T05:16:07.843Z,45.65
2019-05-03T05:17:07.937Z,45.95
2019-05-03T05:18:07.931Z,45.45
2019-05-03T05:19:07.924Z,45.54
2019-05-03T05:20:07.915Z,45.45
2019-05-03T05:21:07.929Z,45.45
2019-05-03T05:22:07.878Z,46.15
2019-05-03T05:23:07.871Z,45.45
2019-05-03T05:24:07.856Z,45.34
2019-05-03T05:25:07.842Z,45.45
2019-05-03T05:26:07.836Z,45.45
2019-05-03T05:27:07.871Z,45.54
2019-05-03T05:28:07.854Z,46.25
2019-05-03T05:29:07.790Z,45.45
2019-05-03T05:30:07.780Z,45.45
2019-05-03T05:31:07.777Z,45.45
2019-05-03T05:32:07.776Z,45.45
2019-05-03T05:33:07.715Z,45.75
2019-05-03T05:34:08.890Z,46.42
2019-05-03T05:35:07.633Z,47.25
2019-05-03T05:36:08.063Z,47.65
2019-05-03T05:37:07.610Z,47.85
2019-05-03T05:38:07.601Z,47.45
2019-05-03T05:39:07.615Z,47.83
2019-05-03T05:40:07.597Z,47.45
2019-05-03T05:41:07.561Z,47.85
2019-05-03T05:42:07.562Z,47.75
2019-05-03T05:43:07.542Z,48.16
2019-05-03T05:44:07.644Z,47.53
2019-05-03T05:45:07.541Z,47.65
2019-05-03T05:46:07.545Z,48.16
2019-05-03T05:47:07.508Z,47.63
2019-05-03T05:48:07.510Z,47.43
2019-05-03T05:49:07.520Z,48.13
2019-05-03T05:50:07.473Z,47.85
2019-05-03T05:51:07.442Z,48.73
2019-05-03T05:52:07.477Z,48.53
2019-05-03T05:53:07.474Z,48.83
2019-05-03T05:54:07.515Z,48.13
2019-05-03T05:55:07.419Z,47.23
2019-05-03T05:56:07.409Z,47.13
2019-05-03T05:57:08.494Z,47.13
2019-05-03T05:58:08.333Z,47.45
2019-05-03T05:59:07.401Z,47.33
2019-05-03T06:00:07.363Z,46.93
2019-05-03T06:01:07.342Z,47.43
2019-05-03T06:02:07.333Z,47.03
2019-05-03T06:03:07.327Z,47.13
2019-05-03T06:04:09.946Z,47.03
2019-05-03T06:05:07.318Z,46.73
2019-05-03T06:06:07.323Z,46.73
2019-05-03T06:07:07.378Z,46.62
2019-05-03T06:08:07.378Z,46.53
2019-05-03T06:09:07.363Z,46.73
2019-05-03T06:10:07.242Z,46.73
2019-05-03T06:11:07.339Z,46.62
2019-05-03T06:12:07.365Z,46.53
2019-05-03T06:13:07.211Z,46.62
2019-05-03T06:14:07.303Z,46.62
2019-05-03T06:15:07.290Z,46.53
2019-05-03T06:16:07.278Z,46.53
2019-05-03T06:17:07.267Z,46.42
2019-05-03T06:18:07.180Z,46.53
2019-05-03T06:19:07.156Z,46.62
2019-05-03T06:20:07.157Z,47.23
2019-05-03T06:21:07.128Z,47.43
2019-05-03T06:22:07.104Z,49.33
2019-05-03T06:23:07.108Z,49.04
2019-05-03T06:24:07.138Z,51.94
2019-05-03T06:25:07.187Z,52.75
2019-05-03T06:26:07.070Z,53.45
2019-05-03T06:27:07.159Z,53.55
2019-05-03T06:28:17.721Z,52.75
2019-05-03T06:29:08.051Z,51.94
2019-05-03T06:30:07.060Z,52.04
2019-05-03T06:31:07.060Z,51.94
2019-05-03T06:32:07.010Z,51.34
2019-05-03T06:33:07.018Z,52.24
2019-05-03T06:34:06.979Z,51.44
2019-05-03T06:35:06.991Z,51.14
2019-05-03T06:36:06.945Z,51.34
2019-05-03T06:37:06.940Z,50.94
2019-05-03T06:38:06.945Z,51.24
2019-05-03T06:39:08.417Z,50.84
2019-05-03T06:40:07.026Z,50.54
2019-05-03T06:41:06.887Z,49.74
2019-05-03T06:42:09.898Z,49.74
2019-05-03T06:43:09.842Z,49.84
2019-05-03T06:44:07.007Z,49.33
2019-05-03T06:45:10.501Z,48.93
2019-05-03T06:46:06.856Z,49.33
2019-05-03T06:47:10.437Z,49.04
2019-05-03T06:48:06.845Z,49.21
2019-05-03T06:49:10.065Z,49.23
2019-05-03T06:50:06.908Z,48.83
2019-05-03T06:51:11.010Z,48.73
2019-05-03T06:52:07.802Z,48.93
2019-05-03T06:53:12.650Z,48.83
2019-05-03T06:54:07.764Z,49.13
2019-05-03T06:55:10.622Z,49.04
2019-05-03T06:56:06.749Z,49.04
2019-05-03T06:57:09.459Z,48.93
2019-05-03T06:58:06.766Z,48.93
2019-05-03T06:59:06.701Z,48.93
2019-05-03T07:00:06.713Z,48.73
2019-05-03T07:01:06.688Z,48.73
2019-05-03T07:02:06.787Z,48.63
2019-05-03T07:03:06.760Z,48.63
2019-05-03T07:04:06.780Z,48.73
2019-05-03T07:05:06.640Z,47.73
2019-05-03T07:06:06.633Z,47.73
2019-05-03T07:07:06.615Z,48.33
2019-05-03T07:08:07.538Z,48.13
2019-05-03T07:09:06.693Z,48.33
2019-05-03T07:10:06.736Z,48.13
2019-05-03T07:11:06.680Z,48.23
2019-05-03T07:12:06.658Z,48.13
2019-05-03T07:13:08.939Z,47.73
2019-05-03T07:14:06.648Z,48.43
2019-05-03T07:15:06.627Z,50.94
2019-05-03T07:16:06.565Z,51.14
2019-05-03T07:17:06.517Z,51.54
2019-05-03T07:18:06.481Z,51.34
2019-05-03T07:19:06.606Z,51.84
2019-05-03T07:20:06.474Z,51.24
2019-05-03T07:21:06.460Z,51.54
2019-05-03T07:22:06.464Z,51.24
2019-05-03T07:23:06.448Z,51.54
2019-05-03T07:24:06.484Z,51.14
2019-05-03T07:25:06.429Z,51.04
2019-05-03T07:26:06.404Z,51.14
2019-05-03T07:27:06.417Z,50.84
2019-05-03T07:28:06.383Z,50.63
2019-05-03T07:29:06.384Z,50.63
2019-05-03T07:30:06.396Z,50.74
2019-05-03T07:31:06.397Z,50.54
2019-05-03T07:32:06.351Z,50.54
2019-05-03T07:33:06.355Z,50.44
2019-05-03T07:34:06.330Z,50.24
2019-05-03T07:35:06.318Z,50.34
2019-05-03T07:36:06.301Z,50.54
2019-05-03T07:37:06.333Z,50.24
2019-05-03T07:38:06.297Z,50.24
2019-05-03T07:39:06.271Z,50.24
2019-05-03T07:40:06.351Z,50.62
2019-05-03T07:41:06.343Z,50.44
2019-05-03T07:42:06.333Z,50.34
2019-05-03T07:43:06.359Z,50.63
2019-05-03T07:44:06.299Z,50.34
2019-05-03T07:45:06.318Z,50.74
2019-05-03T07:46:06.305Z,50.34
2019-05-03T07:47:06.175Z,50.42
2019-05-03T07:48:06.164Z,50.54
2019-05-03T07:49:06.316Z,50.11
2019-05-03T07:50:06.262Z,50.24
2019-05-03T07:51:06.272Z,50.54
2019-05-03T07:52:06.134Z,50.24
2019-05-03T07:53:06.125Z,50.63
2019-05-03T07:54:06.191Z,50.51
2019-05-03T07:55:06.226Z,50.24
2019-05-03T07:56:06.552Z,51.14
2019-05-03T07:57:06.165Z,50.94
2019-05-03T07:58:06.063Z,51.51
2019-05-03T07:59:06.487Z,51.62
2019-05-03T08:00:06.167Z,51.94
2019-05-03T08:01:09.813Z,51.94
2019-05-03T08:02:06.148Z,51.62
2019-05-03T08:03:06.102Z,51.54
2019-05-03T08:04:06.105Z,51.51
2019-05-03T08:05:06.077Z,51.84
2019-05-03T08:06:06.075Z,51.24
2019-05-03T08:07:19.315Z,51.34
2019-05-03T08:08:07.008Z,51.72
2019-05-03T08:09:06.040Z,51.34
2019-05-03T08:10:05.923Z,51.34
2019-05-03T08:11:06.011Z,50.92
2019-05-03T08:12:05.902Z,51.14
2019-05-03T08:13:05.892Z,51.54
2019-05-03T08:14:06.018Z,51.54
2019-05-03T08:15:05.875Z,51.54
2019-05-03T08:16:06.152Z,51.54
2019-05-03T08:17:05.951Z,51.44
2019-05-03T08:18:05.833Z,51.44
2019-05-03T08:19:05.834Z,51.24
2019-05-03T08:20:05.859Z,51.54
2019-05-03T08:21:06.028Z,51.34
2019-05-03T08:22:05.804Z,51.62
2019-05-03T08:23:05.778Z,51.44
2019-05-03T08:24:05.912Z,51.42
2019-05-03T08:25:05.752Z,51.42
2019-05-03T08:26:06.227Z,51.21
2019-05-03T08:27:05.750Z,51.42
2019-05-03T08:28:05.723Z,51.42
2019-05-03T08:29:15.604Z,51.42
2019-05-03T08:30:06.702Z,51.12
2019-05-03T08:31:05.702Z,50.81
2019-05-03T08:32:05.727Z,50.92
2019-05-03T08:33:05.783Z,51.21
2019-05-03T08:34:05.759Z,51.12
2019-05-03T08:35:05.646Z,50.92
2019-05-03T08:36:05.657Z,50.81
2019-05-03T08:37:05.632Z,51.42
2019-05-03T08:38:05.761Z,50.81
2019-05-03T08:39:05.760Z,51.21
2019-05-03T08:40:05.696Z,50.92
2019-05-03T08:41:05.698Z,51.21
2019-05-03T08:42:05.676Z,51.01
2019-05-03T08:43:05.676Z,50.92
2019-05-03T08:44:05.657Z,51.01
2019-05-03T08:45:08.018Z,50.81
2019-05-03T08:46:05.619Z,51.12
2019-05-03T08:47:05.623Z,50.92
2019-05-03T08:48:05.679Z,51.12
2019-05-03T08:49:05.593Z,51.21
2019-05-03T08:50:05.667Z,50.92
2019-05-03T08:51:05.606Z,50.99
2019-05-03T08:52:05.686Z,51.12
2019-05-03T08:53:05.469Z,51.21
2019-05-03T08:54:05.445Z,51.01
2019-05-03T08:55:05.430Z,51.42
2019-05-03T08:56:05.471Z,51.42
2019-05-03T08:57:06.253Z,51.51
2019-05-03T08:58:05.444Z,51.51
2019-05-03T08:59:05.389Z,51.92
2019-05-03T09:00:05.468Z,51.51
2019-05-03T09:01:05.744Z,51.72
2019-05-03T09:02:13.971Z,52.19
2019-05-03T09:03:06.345Z,52.01
2019-05-03T09:04:05.346Z,52.09
2019-05-03T09:05:05.469Z,51.62
2019-05-03T09:06:05.300Z,51.89
2019-05-03T09:07:05.594Z,51.99
2019-05-03T09:08:05.793Z,52.12
2019-05-03T09:09:05.276Z,51.72
2019-05-03T09:10:05.545Z,51.79
2019-05-03T09:11:05.264Z,51.62
2019-05-03T09:12:05.357Z,51.92
2019-05-03T09:13:06.448Z,51.69
2019-05-03T09:14:05.269Z,51.79
2019-05-03T09:15:05.195Z,51.69
2019-05-03T09:16:05.563Z,52.01
2019-05-03T09:17:05.276Z,51.99
2019-05-03T09:18:05.275Z,51.89
2019-05-03T09:19:05.642Z,51.99
2019-05-03T09:20:05.305Z,51.39
2019-05-03T09:21:05.297Z,51.19
2019-05-03T09:22:06.120Z,51.09
2019-05-03T09:23:05.513Z,51.19
2019-05-03T09:24:05.098Z,51.09
2019-05-03T09:25:05.106Z,50.79
2019-05-03T09:26:05.243Z,50.99
2019-05-03T09:27:05.545Z,51.39
2019-05-03T09:28:05.068Z,51.09
2019-05-03T09:29:05.536Z,51.49
2019-05-03T09:30:05.126Z,51.29
2019-05-03T09:31:05.036Z,51.49
2019-05-03T09:32:05.296Z,51.39
2019-05-03T09:33:08.658Z,51.29
2019-05-03T09:34:08.066Z,50.89
2019-05-03T09:35:05.540Z,50.89
2019-05-03T09:36:05.418Z,51.49
2019-05-03T09:37:04.980Z,51.29
2019-05-03T09:38:05.731Z,51.09
2019-05-03T09:39:05.108Z,51.19
2019-05-03T09:40:04.946Z,51.39
2019-05-03T09:41:05.282Z,51.19
2019-05-03T09:42:05.038Z,51.09
2019-05-03T09:43:05.001Z,50.89
2019-05-03T09:44:04.938Z,50.89
2019-05-03T09:45:05.024Z,50.89
2019-05-03T09:46:05.189Z,50.79
2019-05-03T09:47:05.573Z,50.99
2019-05-03T09:48:05.765Z,51.19
2019-05-03T09:49:13.163Z,50.89
2019-05-03T09:50:05.857Z,51.19
2019-05-03T09:51:05.153Z,50.99
2019-05-03T09:52:08.112Z,51.19
2019-05-03T09:53:05.438Z,51.29
2019-05-03T09:54:05.371Z,50.99
2019-05-03T09:55:05.298Z,50.89
2019-05-03T09:56:05.148Z,51.09
2019-05-03T09:57:05.857Z,51.07
2019-05-03T09:58:05.530Z,50.99
2019-05-03T09:59:05.415Z,50.89
2019-05-03T10:00:05.051Z,51.09
2019-05-03T10:01:06.208Z,50.96
2019-05-03T10:02:05.107Z,50.96
2019-05-03T10:03:05.564Z,51.29
2019-05-03T10:04:05.531Z,51.09
2019-05-03T10:05:04.759Z,51.09
2019-05-03T10:06:04.759Z,51.07
2019-05-03T10:07:04.644Z,51.07
2019-05-03T10:08:05.292Z,50.96
2019-05-03T10:09:05.342Z,51.19
2019-05-03T10:10:05.708Z,51.07
2019-05-03T10:11:05.519Z,51.19
2019-05-03T10:12:05.489Z,50.96
2019-05-03T10:13:13.023Z,51.07
2019-05-03T10:14:05.690Z,51.09
2019-05-03T10:15:06.497Z,50.87
2019-05-03T10:16:06.017Z,51.17
2019-05-03T10:17:05.412Z,51.09
2019-05-03T10:18:10.659Z,51.07
2019-05-03T10:19:05.497Z,51.19
2019-05-03T10:20:04.528Z,50.96
2019-05-03T10:21:05.362Z,51.09
2019-05-03T10:22:05.722Z,50.96
2019-05-03T10:23:05.308Z,51.17
2019-05-03T10:24:05.712Z,50.96
2019-05-03T10:25:05.013Z,50.99
2019-05-03T10:26:05.138Z,50.99
2019-05-03T10:27:05.604Z,51.09
2019-05-03T10:28:05.736Z,51.19
2019-05-03T10:29:05.455Z,50.96
2019-05-03T10:30:12.933Z,51.07
2019-05-03T10:31:07.846Z,51.07
2019-05-03T10:32:04.456Z,51.07
2019-05-03T10:33:05.974Z,51.07
2019-05-03T10:34:05.821Z,51.09
2019-05-03T10:35:05.729Z,51.17
2019-05-03T10:36:05.466Z,51.17
2019-05-03T10:37:05.194Z,51.17
2019-05-03T10:38:05.827Z,51.07
2019-05-03T10:39:04.835Z,51.17
2019-05-03T10:40:07.724Z,51.17
2019-05-03T10:41:05.836Z,51.17
2019-05-03T10:42:04.848Z,51.27
2019-05-03T10:43:04.857Z,51.27
2019-05-03T10:44:06.027Z,51.37
2019-05-03T10:45:04.729Z,51.37
2019-05-03T10:46:05.157Z,51.27
2019-05-03T10:47:05.468Z,51.17
2019-05-03T10:48:04.826Z,51.17
2019-05-03T10:49:05.763Z,51.57
2019-05-03T10:50:04.672Z,50.96
2019-05-03T10:51:04.682Z,51.17
2019-05-03T10:52:05.676Z,51.27
2019-05-03T10:53:05.206Z,51.67
2019-05-03T10:54:05.210Z,51.07
2019-05-03T10:55:05.373Z,50.84
2019-05-03T10:56:05.108Z,50.87
2019-05-03T10:57:05.246Z,50.74
2019-05-03T10:58:05.340Z,50.74
2019-05-03T10:59:06.022Z,50.64
2019-05-03T11:00:05.072Z,50.74
2019-05-03T11:01:04.975Z,50.74
2019-05-03T11:02:04.039Z,50.64
2019-05-03T11:03:05.312Z,50.44
2019-05-03T11:04:05.305Z,50.74
2019-05-03T11:05:05.213Z,50.34
2019-05-03T11:06:05.475Z,50.62
2019-05-03T11:07:05.444Z,50.34
2019-05-03T11:08:05.021Z,50.54
2019-05-03T11:09:05.625Z,50.44
2019-05-03T11:10:05.302Z,50.32
2019-05-03T11:11:05.914Z,50.44
2019-05-03T11:12:05.333Z,50.22
2019-05-03T11:13:05.848Z,50.12
2019-05-03T11:14:05.548Z,50.32
2019-05-03T11:15:03.887Z,49.91
2019-05-03T11:16:05.582Z,49.22
2019-05-03T11:17:05.686Z,49.11
2019-05-03T11:18:05.601Z,49.41
2019-05-03T11:19:05.407Z,49.22
2019-05-03T11:20:05.285Z,49.24
2019-05-03T11:21:05.206Z,49.11
2019-05-03T11:22:05.448Z,49.02
2019-05-03T11:23:05.971Z,48.61
2019-05-03T11:24:03.782Z,47.94
2019-05-03T11:25:05.162Z,47.74
2019-05-03T11:26:03.762Z,47.64
2019-05-03T11:27:03.761Z,47.94
2019-05-03T11:28:04.873Z,47.34
2019-05-03T11:29:05.187Z,47.04
2019-05-03T11:30:04.914Z,47.24
2019-05-03T11:31:05.023Z,47.34
2019-05-03T11:32:09.142Z,46.74
2019-05-03T11:33:04.696Z,47.04
2019-05-03T11:34:03.697Z,47.14
2019-05-03T11:35:04.557Z,46.74
2019-05-03T11:36:04.430Z,47.06
2019-05-03T11:37:04.956Z,47.16
2019-05-03T11:38:05.458Z,47.04
2019-05-03T11:39:04.954Z,46.86
2019-05-03T11:40:05.118Z,47.16
2019-05-03T11:41:04.871Z,46.96
2019-05-03T11:42:04.699Z,47.34
2019-05-03T11:43:04.635Z,47.66
2019-05-03T11:44:03.555Z,47.46
2019-05-03T11:45:03.554Z,47.26
2019-05-03T11:46:03.556Z,47.26
2019-05-03T11:47:05.625Z,47.66
2019-05-03T11:48:03.510Z,46.96
